createdAt,value
2022-08-02T00:01:56.656Z,2.10
2022-08-02T00:03:59.488Z,2.30
2022-08-02T00:06:02.297Z,2.50
2022-08-02T00:08:05.454Z,2.60
2022-08-02T00:10:11.318Z,2.30
2022-08-02T00:12:14.255Z,2.30
2022-08-02T00:14:17.015Z,2.40
2022-08-02T00:16:19.863Z,2.70
2022-08-02T00:18:40.203Z,2.70
2022-08-02T00:20:43.961Z,2.17
2022-08-02T00:22:46.744Z,2.53
2022-08-02T00:24:49.543Z,2.47
2022-08-02T00:26:53.700Z,2.77
2022-08-02T00:28:56.612Z,2.33
2022-08-02T00:31:00.190Z,2.37
2022-08-02T00:33:05.055Z,2.23
2022-08-02T00:35:09.033Z,2.90
2022-08-02T00:37:11.802Z,2.80
2022-08-02T00:39:33.456Z,2.77
2022-08-02T00:41:46.723Z,2.67
2022-08-02T00:43:52.326Z,3.00
2022-08-02T00:46:03.319Z,2.40
2022-08-02T00:48:08.989Z,2.60
2022-08-02T00:50:11.844Z,2.67
2022-08-02T00:52:14.893Z,2.63
2022-08-02T00:54:17.808Z,2.63
2022-08-02T00:56:20.611Z,2.53
2022-08-02T00:58:23.601Z,2.90
2022-08-02T01:00:29.960Z,2.93
2022-08-02T01:02:32.851Z,2.60
2022-08-02T01:04:35.661Z,3.10
2022-08-02T01:06:38.964Z,2.60
2022-08-02T01:08:42.033Z,2.77
2022-08-02T01:10:47.049Z,3.00
2022-08-02T01:12:50.459Z,2.90
2022-08-02T01:14:56.783Z,2.90
2022-08-02T01:17:07.568Z,2.67
2022-08-02T01:19:31.871Z,2.73
2022-08-02T01:21:48.733Z,2.50
2022-08-02T01:24:15.693Z,2.47
2022-08-02T01:26:35.668Z,2.50
2022-08-02T01:28:47.238Z,2.57
2022-08-02T01:30:58.285Z,2.10
2022-08-02T01:33:04.183Z,2.27
2022-08-02T01:35:12.370Z,2.30
2022-08-02T01:37:20.000Z,2.20
2022-08-02T01:39:32.144Z,2.00
2022-08-02T01:41:37.164Z,2.20
2022-08-02T01:43:43.285Z,2.23
2022-08-02T01:45:48.118Z,2.17
2022-08-02T01:47:52.752Z,2.10
2022-08-02T01:49:58.941Z,1.97
2022-08-02T01:52:21.806Z,2.20
2022-08-02T01:54:28.031Z,2.90
2022-08-02T01:56:30.914Z,4.20
2022-08-02T01:58:37.481Z,3.10
2022-08-02T02:00:43.866Z,2.37
2022-08-02T02:02:50.179Z,1.97
2022-08-02T02:04:54.564Z,1.60
2022-08-02T02:06:58.488Z,1.97
2022-08-02T02:09:02.002Z,1.90
2022-08-02T02:12:12.171Z,1.63
2022-08-02T02:13:33.787Z,1.67
2022-08-02T02:15:44.575Z,2.00
2022-08-02T02:18:10.428Z,1.80
2022-08-02T02:20:15.776Z,2.20
2022-08-02T02:22:18.630Z,4.70
2022-08-02T02:24:21.996Z,2.40
2022-08-02T02:26:29.677Z,2.20
2022-08-02T02:28:38.251Z,2.30
2022-08-02T02:30:48.284Z,1.60
2022-08-02T02:32:53.841Z,2.40
2022-08-02T02:34:59.025Z,1.80
2022-08-02T02:37:06.054Z,1.90
2022-08-02T02:39:13.706Z,2.10
2022-08-02T02:41:19.953Z,2.17
2022-08-02T02:43:23.825Z,2.13
2022-08-02T02:45:27.900Z,1.70
2022-08-02T02:47:40.548Z,2.27
2022-08-02T02:49:45.924Z,2.13
2022-08-02T02:51:49.470Z,1.83
2022-08-02T02:54:32.123Z,1.97
2022-08-02T02:56:17.406Z,2.60
2022-08-02T02:58:20.413Z,2.10
2022-08-02T03:00:49.500Z,2.20
2022-08-02T03:02:53.813Z,1.80
2022-08-02T03:04:58.325Z,1.93
2022-08-02T03:07:02.663Z,2.17
2022-08-02T03:09:05.706Z,2.30
2022-08-02T03:11:10.462Z,2.10
2022-08-02T03:13:13.971Z,1.90
2022-08-02T03:15:18.662Z,1.97
2022-08-02T03:17:21.443Z,2.00
2022-08-02T03:19:25.743Z,1.67
2022-08-02T03:21:36.066Z,1.67
2022-08-02T03:23:39.899Z,1.93
2022-08-02T03:25:42.752Z,1.80
2022-08-02T03:27:45.775Z,2.17
2022-08-02T03:29:48.590Z,2.30
2022-08-02T03:31:51.889Z,2.00
2022-08-02T03:33:56.064Z,2.20
2022-08-02T03:36:02.566Z,2.00
2022-08-02T03:38:06.715Z,2.03
2022-08-02T03:40:12.020Z,2.00
2022-08-02T03:42:15.743Z,1.70
2022-08-02T03:44:18.915Z,2.07
2022-08-02T03:46:24.766Z,2.03
2022-08-02T03:48:33.972Z,2.13
2022-08-02T03:50:38.101Z,1.90
2022-08-02T03:52:43.628Z,1.70
2022-08-02T03:54:46.557Z,2.37
2022-08-02T03:56:49.705Z,2.40
2022-08-02T03:59:06.977Z,2.57
2022-08-02T04:01:09.857Z,2.23
2022-08-02T04:03:12.709Z,2.60
2022-08-02T04:05:22.633Z,2.37
2022-08-02T04:08:15.382Z,2.57
2022-08-02T04:09:49.491Z,2.47
2022-08-02T04:11:51.307Z,2.33
2022-08-02T04:13:56.692Z,2.50
2022-08-02T04:16:04.874Z,2.43
2022-08-02T04:18:08.733Z,2.63
2022-08-02T04:20:15.956Z,2.50
2022-08-02T04:22:22.582Z,2.50
2022-08-02T04:24:31.945Z,2.20
2022-08-02T04:26:38.559Z,2.10
2022-08-02T04:28:45.509Z,2.63
2022-08-02T04:30:50.730Z,2.80
2022-08-02T04:32:53.880Z,2.40
2022-08-02T04:35:18.634Z,2.60
2022-08-02T04:37:20.081Z,2.60
2022-08-02T04:39:22.822Z,2.47
2022-08-02T04:41:44.213Z,2.23
2022-08-02T04:43:47.212Z,2.07
2022-08-02T04:45:52.721Z,2.67
2022-08-02T04:48:04.588Z,2.60
2022-08-02T04:50:08.564Z,2.60
2022-08-02T04:52:11.469Z,2.73
2022-08-02T04:54:14.603Z,2.30
2022-08-02T04:56:17.661Z,2.23
2022-08-02T04:58:39.916Z,2.30
2022-08-02T05:00:43.854Z,2.50
2022-08-02T05:02:46.780Z,2.80
2022-08-02T05:04:49.946Z,2.70
2022-08-02T05:06:52.702Z,2.70
2022-08-02T05:08:55.374Z,2.47
2022-08-02T05:10:58.192Z,2.50
2022-08-02T05:13:01.025Z,2.80
2022-08-02T05:15:05.896Z,2.70
2022-08-02T05:17:08.767Z,2.60
2022-08-02T05:19:11.540Z,2.63
2022-08-02T05:21:14.539Z,2.73
2022-08-02T05:23:18.334Z,2.90
2022-08-02T05:25:21.104Z,2.63
2022-08-02T05:27:23.946Z,2.53
2022-08-02T05:29:26.767Z,2.77
2022-08-02T05:31:31.050Z,2.70
2022-08-02T05:33:34.147Z,2.43
2022-08-02T05:35:37.494Z,2.70
2022-08-02T05:37:43.010Z,2.70
2022-08-02T05:39:55.524Z,2.60
2022-08-02T05:41:58.877Z,2.90
2022-08-02T05:44:02.855Z,3.00
2022-08-02T05:46:05.822Z,2.70
2022-08-02T05:48:10.879Z,2.43
2022-08-02T05:50:13.752Z,2.60
2022-08-02T05:52:18.521Z,2.53
2022-08-02T05:54:28.525Z,2.83
2022-08-02T05:56:39.710Z,2.70
2022-08-02T05:58:54.471Z,2.90
2022-08-02T06:00:57.888Z,3.00
2022-08-02T06:03:06.214Z,3.10
2022-08-02T06:05:13.003Z,2.70
2022-08-02T06:07:17.281Z,2.77
2022-08-02T06:09:23.995Z,2.77
2022-08-02T06:11:37.206Z,2.50
2022-08-02T06:13:42.125Z,2.50
2022-08-02T06:15:52.779Z,3.00
2022-08-02T06:17:57.821Z,2.73
2022-08-02T06:20:02.075Z,2.80
2022-08-02T06:22:41.685Z,2.80
2022-08-02T06:24:38.853Z,2.73
2022-08-02T06:26:44.085Z,2.60
2022-08-02T06:28:47.225Z,2.80
2022-08-02T06:30:51.514Z,3.03
2022-08-02T06:32:55.009Z,2.70
2022-08-02T06:34:57.896Z,2.63
2022-08-02T06:37:08.699Z,3.10
2022-08-02T06:39:22.063Z,2.77
2022-08-02T06:41:26.102Z,3.00
2022-08-02T06:43:36.104Z,2.90
2022-08-02T06:45:42.223Z,2.90
2022-08-02T06:47:45.499Z,2.53
2022-08-02T06:49:52.021Z,2.87
2022-08-02T06:51:57.440Z,2.87
2022-08-02T06:54:00.310Z,2.77
2022-08-02T06:56:07.171Z,3.00
2022-08-02T06:58:12.862Z,3.23
2022-08-02T07:00:16.671Z,3.30
2022-08-02T07:02:20.766Z,3.43
2022-08-02T07:04:23.593Z,3.10
2022-08-02T07:06:26.473Z,3.13
2022-08-02T07:08:32.325Z,3.17
2022-08-02T07:10:35.168Z,3.30
2022-08-02T07:12:39.342Z,3.17
2022-08-02T07:14:42.119Z,3.00
2022-08-02T07:16:46.156Z,3.13
2022-08-02T07:18:48.902Z,3.40
2022-08-02T07:20:51.905Z,3.50
2022-08-02T07:22:54.754Z,3.30
2022-08-02T07:25:00.694Z,3.20
2022-08-02T07:27:12.217Z,3.50
2022-08-02T07:29:16.772Z,4.00
2022-08-02T07:31:19.715Z,3.60
2022-08-02T07:33:37.493Z,4.27
2022-08-02T07:35:42.517Z,3.63
2022-08-02T07:38:01.946Z,3.97
2022-08-02T07:40:11.932Z,3.97
2022-08-02T07:42:15.732Z,4.10
2022-08-02T07:44:20.256Z,3.73
2022-08-02T07:46:23.050Z,4.27
2022-08-02T07:48:25.898Z,4.60
2022-08-02T07:50:29.988Z,4.37
2022-08-02T07:52:32.853Z,4.97
2022-08-02T07:54:35.649Z,4.87
2022-08-02T07:56:38.513Z,4.80
2022-08-02T07:58:42.743Z,5.20
2022-08-02T08:00:47.275Z,4.60
2022-08-02T08:02:50.200Z,6.20
2022-08-02T08:04:53.985Z,5.37
2022-08-02T08:06:56.857Z,5.17
2022-08-02T08:09:00.211Z,5.60
2022-08-02T08:11:03.115Z,5.83
2022-08-02T08:13:05.929Z,5.77
2022-08-02T08:15:09.805Z,6.23
2022-08-02T08:17:14.307Z,6.33
2022-08-02T08:19:17.224Z,6.23
2022-08-02T08:21:20.105Z,6.63
2022-08-02T08:23:23.236Z,6.50
2022-08-02T08:25:27.188Z,5.97
2022-08-02T08:27:30.275Z,6.50
2022-08-02T08:29:33.205Z,5.70
2022-08-02T08:31:38.162Z,5.40
2022-08-02T08:33:42.584Z,5.00
2022-08-02T08:35:45.729Z,5.43
2022-08-02T08:37:49.294Z,5.27
2022-08-02T08:39:56.332Z,5.30
2022-08-02T08:42:02.236Z,4.60
2022-08-02T08:44:05.607Z,4.77
2022-08-02T08:46:11.970Z,5.03
2022-08-02T08:48:22.491Z,4.23
2022-08-02T08:50:40.741Z,5.20
2022-08-02T08:52:49.536Z,4.37
2022-08-02T08:54:53.692Z,3.77
2022-08-02T08:56:57.186Z,3.63
2022-08-02T08:59:00.227Z,4.40
2022-08-02T09:01:03.190Z,4.20
2022-08-02T09:03:07.113Z,4.50
2022-08-02T09:05:11.755Z,3.90
2022-08-02T09:07:15.856Z,4.97
2022-08-02T09:09:19.130Z,4.90
2022-08-02T09:11:25.511Z,3.70
2022-08-02T09:13:45.130Z,3.90
2022-08-02T09:15:56.171Z,3.40
2022-08-02T09:17:59.156Z,3.30
2022-08-02T09:20:09.088Z,4.33
2022-08-02T09:22:14.806Z,2.80
2022-08-02T09:24:22.112Z,3.80
2022-08-02T09:26:25.064Z,2.97
2022-08-02T09:28:29.234Z,2.90
2022-08-02T09:30:32.660Z,2.60
2022-08-02T09:32:45.783Z,2.77
2022-08-02T09:34:50.301Z,2.80
2022-08-02T09:36:54.327Z,2.87
2022-08-02T09:38:59.770Z,2.97
2022-08-02T09:41:05.314Z,4.23
2022-08-02T09:43:08.633Z,2.87
2022-08-02T09:45:11.776Z,2.27
2022-08-02T09:47:18.062Z,2.60
2022-08-02T09:49:20.997Z,2.40
2022-08-02T09:51:26.072Z,2.20
2022-08-02T09:53:28.970Z,2.40
2022-08-02T09:55:31.937Z,2.80
2022-08-02T09:57:38.422Z,2.73
2022-08-02T09:59:53.667Z,2.43
2022-08-02T10:02:02.593Z,3.00
2022-08-02T10:04:14.519Z,2.40
2022-08-02T10:06:24.154Z,2.20
2022-08-02T10:08:27.366Z,2.50
2022-08-02T10:10:30.300Z,2.47
2022-08-02T10:12:33.589Z,2.50
2022-08-02T10:14:39.020Z,2.37
2022-08-02T10:16:43.985Z,2.30
2022-08-02T10:18:46.963Z,2.40
2022-08-02T10:20:51.802Z,2.30
2022-08-02T10:22:55.551Z,2.50
2022-08-02T10:24:58.529Z,2.50
2022-08-02T10:27:02.414Z,2.50
2022-08-02T10:29:05.720Z,2.37
2022-08-02T10:31:12.083Z,2.10
2022-08-02T10:33:18.467Z,2.23
2022-08-02T10:35:25.594Z,1.90
2022-08-02T10:37:31.162Z,2.23
2022-08-02T10:39:40.009Z,2.30
2022-08-02T10:41:48.204Z,2.40
2022-08-02T10:43:51.110Z,2.50
2022-08-02T10:45:54.001Z,2.00
2022-08-02T10:48:03.922Z,1.97
2022-08-02T10:50:07.644Z,1.97
2022-08-02T10:52:11.372Z,2.10
2022-08-02T10:54:20.681Z,1.77
2022-08-02T10:56:48.557Z,1.80
2022-08-02T10:59:24.680Z,1.90
2022-08-02T11:01:38.751Z,2.17
2022-08-02T11:03:46.067Z,1.80
2022-08-02T11:06:02.927Z,2.00
2022-08-02T11:08:19.881Z,2.00
2022-08-02T11:10:37.861Z,1.60
2022-08-02T11:12:59.970Z,1.83
2022-08-02T11:15:07.326Z,1.90
2022-08-02T11:17:16.371Z,1.90
2022-08-02T11:19:19.310Z,2.00
2022-08-02T11:21:24.059Z,2.10
2022-08-02T11:23:44.325Z,1.70
2022-08-02T11:26:10.929Z,1.70
2022-08-02T11:28:14.361Z,1.80
2022-08-02T11:30:17.458Z,1.90
2022-08-02T11:32:22.398Z,1.67
2022-08-02T11:34:37.341Z,2.00
2022-08-02T11:36:48.967Z,2.40
2022-08-02T11:38:51.825Z,1.80
2022-08-02T11:40:57.288Z,2.10
2022-08-02T11:43:00.452Z,1.90
2022-08-02T11:45:06.872Z,2.00
2022-08-02T11:47:09.846Z,1.80
2022-08-02T11:49:14.611Z,1.80
2022-08-02T11:51:19.705Z,2.00
2022-08-02T11:53:22.457Z,1.77
2022-08-02T11:55:29.543Z,1.50
2022-08-02T11:58:03.624Z,2.00
2022-08-02T11:59:57.302Z,2.00
2022-08-02T12:02:01.497Z,2.03
2022-08-02T12:04:05.523Z,1.60
2022-08-02T12:06:16.355Z,1.90
2022-08-02T12:08:24.313Z,2.10
2022-08-02T12:10:28.369Z,1.70
2022-08-02T12:12:31.191Z,2.30
2022-08-02T12:14:42.259Z,2.00
2022-08-02T12:17:02.740Z,1.73
2022-08-02T12:19:19.859Z,1.97
2022-08-02T12:21:24.402Z,1.80
2022-08-02T12:23:27.575Z,1.77
2022-08-02T12:25:34.239Z,1.90
2022-08-02T12:27:41.463Z,1.60
2022-08-02T12:29:57.675Z,1.70
2022-08-02T12:32:02.747Z,1.90
2022-08-02T12:34:15.004Z,1.73
2022-08-02T12:36:18.505Z,1.80
2022-08-02T12:38:21.702Z,1.77
2022-08-02T12:40:27.689Z,1.80
2022-08-02T12:42:46.552Z,2.00
2022-08-02T12:44:53.658Z,1.90
2022-08-02T12:47:00.423Z,2.00
2022-08-02T12:49:18.610Z,2.00
2022-08-02T12:51:51.368Z,2.20
2022-08-02T12:53:59.920Z,3.97
2022-08-02T12:56:03.887Z,2.00
2022-08-02T12:58:06.984Z,1.60
2022-08-02T13:00:11.436Z,1.90
2022-08-02T13:02:16.676Z,1.80
2022-08-02T13:04:21.466Z,1.60
2022-08-02T13:06:42.995Z,1.70
2022-08-02T13:08:47.383Z,1.97
2022-08-02T13:10:50.514Z,2.20
2022-08-02T13:12:54.018Z,2.03
2022-08-02T13:14:56.936Z,1.97
2022-08-02T13:17:00.000Z,1.70
2022-08-02T13:19:02.820Z,2.40
2022-08-02T13:21:08.287Z,2.40
2022-08-02T13:23:24.450Z,1.93
2022-08-02T13:25:47.643Z,2.07
2022-08-02T13:27:56.122Z,2.33
2022-08-02T13:29:59.680Z,1.90
2022-08-02T13:32:02.479Z,1.80
2022-08-02T13:34:06.187Z,1.80
2022-08-02T13:36:10.285Z,1.93
2022-08-02T13:38:13.402Z,2.07
2022-08-02T13:40:22.088Z,1.93
2022-08-02T13:42:25.707Z,7.23
2022-08-02T13:44:28.694Z,4.43
2022-08-02T13:46:31.629Z,2.83
2022-08-02T13:48:35.050Z,2.47
2022-08-02T13:50:37.949Z,2.53
2022-08-02T13:52:42.269Z,2.17
2022-08-02T13:54:45.148Z,1.90
2022-08-02T13:56:48.085Z,2.10
2022-08-02T13:58:50.914Z,2.17
2022-08-02T14:00:53.623Z,2.50
2022-08-02T14:02:56.378Z,2.47
2022-08-02T14:04:59.123Z,2.27
2022-08-02T14:07:01.836Z,2.30
2022-08-02T14:09:06.014Z,2.40
2022-08-02T14:11:08.772Z,2.33
2022-08-02T14:13:11.490Z,2.40
2022-08-02T14:15:14.578Z,2.30
2022-08-02T14:17:18.820Z,1.93
2022-08-02T14:19:22.761Z,2.30
2022-08-02T14:21:25.577Z,2.30
2022-08-02T14:23:49.935Z,2.30
2022-08-02T14:25:54.814Z,2.60
2022-08-02T14:27:57.719Z,2.33
2022-08-02T14:30:01.122Z,2.40
2022-08-02T14:32:04.341Z,2.40
2022-08-02T14:34:07.168Z,2.37
2022-08-02T14:36:10.030Z,2.30
2022-08-02T14:38:12.867Z,2.37
2022-08-02T14:40:27.860Z,2.27
2022-08-02T14:42:35.119Z,2.43
2022-08-02T14:44:38.604Z,2.90
2022-08-02T14:46:42.222Z,3.30
2022-08-02T14:48:44.987Z,2.53
2022-08-02T14:50:47.754Z,2.80
2022-08-02T14:52:51.463Z,2.73
2022-08-02T14:54:56.386Z,2.20
2022-08-02T14:57:00.803Z,2.63
2022-08-02T14:59:06.029Z,3.50
2022-08-02T15:01:08.932Z,2.70
2022-08-02T15:03:12.483Z,2.73
2022-08-02T15:05:15.342Z,2.70
2022-08-02T15:07:18.131Z,3.00
2022-08-02T15:09:21.252Z,2.37
2022-08-02T15:11:24.128Z,2.60
2022-08-02T15:13:26.909Z,2.47
2022-08-02T15:15:31.284Z,2.90
2022-08-02T15:17:34.072Z,3.13
2022-08-02T15:19:59.045Z,2.60
2022-08-02T15:22:00.345Z,3.03
2022-08-02T15:24:06.470Z,2.80
2022-08-02T15:26:09.225Z,2.60
2022-08-02T15:28:12.016Z,2.30
2022-08-02T15:30:15.094Z,2.70
2022-08-02T15:32:19.791Z,2.70
2022-08-02T15:34:22.715Z,2.80
2022-08-02T15:36:25.513Z,2.67
2022-08-02T15:38:28.285Z,2.63
2022-08-02T15:40:31.082Z,2.70
2022-08-02T15:42:33.868Z,2.90
2022-08-02T15:44:36.680Z,2.50
2022-08-02T15:46:39.510Z,3.00
2022-08-02T15:48:43.630Z,3.20
2022-08-02T15:50:46.712Z,2.70
2022-08-02T15:52:49.559Z,2.77
2022-08-02T15:54:52.420Z,2.60
2022-08-02T15:56:55.179Z,2.67
2022-08-02T15:58:58.915Z,2.80
2022-08-02T16:01:01.986Z,2.83
2022-08-02T16:03:04.900Z,2.73
2022-08-02T16:05:14.130Z,4.70
2022-08-02T16:07:17.207Z,5.23
2022-08-02T16:09:19.986Z,3.23
2022-08-02T16:11:23.326Z,2.93
2022-08-02T16:13:53.117Z,3.13
2022-08-02T16:15:58.019Z,2.40
2022-08-02T16:18:01.478Z,2.77
2022-08-02T16:20:05.037Z,2.77
2022-08-02T16:22:11.256Z,2.93
2022-08-02T16:24:14.409Z,2.70
2022-08-02T16:26:17.212Z,2.70
2022-08-02T16:28:20.036Z,2.53
2022-08-02T16:30:23.000Z,2.97
2022-08-02T16:32:26.148Z,2.73
2022-08-02T16:34:40.292Z,3.40
2022-08-02T16:36:51.910Z,13.23
2022-08-02T16:38:56.746Z,2.73
2022-08-02T16:41:01.701Z,3.00
2022-08-02T16:43:08.921Z,3.03
2022-08-02T16:45:14.059Z,2.63
2022-08-02T16:47:17.563Z,3.10
2022-08-02T16:50:09.734Z,2.63
2022-08-02T16:51:43.587Z,2.83
2022-08-02T16:54:00.430Z,2.90
2022-08-02T16:56:05.719Z,2.80
2022-08-02T16:58:09.694Z,2.50
2022-08-02T17:02:38.152Z,2.65
2022-08-02T17:04:43.487Z,2.60
2022-08-02T17:06:47.678Z,3.25
2022-08-02T17:08:56.211Z,3.10
2022-08-02T17:11:03.344Z,3.30
2022-08-02T17:13:11.488Z,3.15
2022-08-02T17:15:46.937Z,3.00
2022-08-02T17:17:45.887Z,2.43
2022-08-02T17:19:48.882Z,2.73
2022-08-02T17:21:52.137Z,3.00
2022-08-02T17:24:08.102Z,3.10
2022-08-02T17:26:13.322Z,2.70
2022-08-02T17:28:17.759Z,2.70
2022-08-02T17:30:26.528Z,2.70
2022-08-02T17:32:29.877Z,3.30
2022-08-02T17:34:33.303Z,2.70
2022-08-02T17:36:36.403Z,2.67
2022-08-02T17:38:50.034Z,3.00
2022-08-02T17:40:53.131Z,2.90
2022-08-02T17:42:55.974Z,2.70
2022-08-02T17:45:16.818Z,3.23
2022-08-02T17:47:30.839Z,3.63
2022-08-02T17:49:36.197Z,2.40
2022-08-02T17:52:49.188Z,2.77
2022-08-02T17:54:09.008Z,2.70
2022-08-02T17:56:12.589Z,2.60
2022-08-02T17:58:15.455Z,2.60
2022-08-02T18:00:20.205Z,2.93
2022-08-02T18:02:23.068Z,2.63
2022-08-02T18:04:27.594Z,2.97
2022-08-02T18:06:30.817Z,3.20
2022-08-02T18:08:36.220Z,3.20
2022-08-02T18:10:40.443Z,3.37
2022-08-02T18:12:43.278Z,2.90
2022-08-02T18:14:49.371Z,3.00
2022-08-02T18:16:53.667Z,3.60
2022-08-02T18:18:56.541Z,3.10
2022-08-02T18:21:16.219Z,3.17
2022-08-02T18:23:25.616Z,3.07
2022-08-02T18:25:37.193Z,10.13
2022-08-02T18:27:47.045Z,5.97
2022-08-02T18:30:00.274Z,9.50
2022-08-02T18:32:11.603Z,3.77
2022-08-02T18:34:15.008Z,3.47
2022-08-02T18:36:24.400Z,3.17
2022-08-02T18:38:30.206Z,15.20
2022-08-02T18:40:33.490Z,32.97
2022-08-02T18:42:36.282Z,9.93
2022-08-02T18:44:39.884Z,5.80
2022-08-02T18:46:42.702Z,3.40
2022-08-02T18:48:47.864Z,3.50
2022-08-02T18:50:51.092Z,3.13
2022-08-02T18:52:54.002Z,3.60
2022-08-02T18:55:00.051Z,4.30
2022-08-02T18:57:04.265Z,4.00
2022-08-02T18:59:25.862Z,3.70
2022-08-02T19:01:32.046Z,3.40
2022-08-02T19:03:37.000Z,3.30
2022-08-02T19:05:52.198Z,4.00
2022-08-02T19:07:57.149Z,3.57
2022-08-02T19:10:00.928Z,3.40
2022-08-02T19:12:04.366Z,3.20
2022-08-02T19:14:07.170Z,3.67
2022-08-02T19:16:09.995Z,3.50
2022-08-02T19:18:13.730Z,3.10
2022-08-02T19:20:19.145Z,10.23
2022-08-02T19:22:23.703Z,5.50
2022-08-02T19:24:27.561Z,4.90
2022-08-02T19:26:32.457Z,3.80
2022-08-02T19:28:36.271Z,3.90
2022-08-02T19:30:39.244Z,8.13
2022-08-02T19:32:58.979Z,8.57
2022-08-02T19:35:15.288Z,5.10
2022-08-02T19:37:31.604Z,4.87
2022-08-02T19:39:40.003Z,4.50
2022-08-02T19:41:48.765Z,4.47
2022-08-02T19:44:26.415Z,4.20
2022-08-02T19:46:18.395Z,5.67
2022-08-02T19:48:24.002Z,23.73
2022-08-02T19:50:28.210Z,23.23
2022-08-02T19:52:32.479Z,10.60
2022-08-02T19:54:55.667Z,9.80
2022-08-02T19:57:00.064Z,9.77
2022-08-02T19:59:13.391Z,5.13
2022-08-02T20:01:19.402Z,6.80
2022-08-02T20:03:39.890Z,6.57
2022-08-02T20:05:47.767Z,4.47
2022-08-02T20:07:56.513Z,4.33
2022-08-02T20:10:00.094Z,4.23
2022-08-02T20:12:04.192Z,4.00
2022-08-02T20:14:08.448Z,4.03
2022-08-02T20:16:11.194Z,3.60
2022-08-02T20:18:31.822Z,4.10
2022-08-02T20:20:37.085Z,3.73
2022-08-02T20:22:59.166Z,3.87
2022-08-02T20:25:07.833Z,3.63
2022-08-02T20:27:14.925Z,3.60
2022-08-02T20:29:42.797Z,3.57
2022-08-02T20:31:42.519Z,3.40
2022-08-02T20:33:55.378Z,3.70
2022-08-02T20:36:01.449Z,3.50
2022-08-02T20:38:04.847Z,3.87
2022-08-02T20:40:16.619Z,3.40
2022-08-02T20:42:22.821Z,3.40
2022-08-02T20:44:31.072Z,3.33
2022-08-02T20:46:34.198Z,3.53
2022-08-02T20:48:37.792Z,3.50
2022-08-02T20:50:49.299Z,3.70
2022-08-02T20:52:53.655Z,3.20
2022-08-02T20:54:56.848Z,3.07
2022-08-02T20:57:01.031Z,3.63
2022-08-02T20:59:11.558Z,3.20
2022-08-02T21:01:18.993Z,3.20
2022-08-02T21:03:24.259Z,3.27
2022-08-02T21:05:55.421Z,3.60
2022-08-02T21:07:58.940Z,3.30
2022-08-02T21:10:01.803Z,3.60
2022-08-02T21:12:12.488Z,3.23
2022-08-02T21:14:15.693Z,3.50
2022-08-02T21:16:22.173Z,3.40
2022-08-02T21:18:35.751Z,3.50
2022-08-02T21:20:44.193Z,3.03
2022-08-02T21:22:47.040Z,3.83
2022-08-02T21:24:49.865Z,5.93
2022-08-02T21:26:53.411Z,3.30
2022-08-02T21:29:01.008Z,4.13
2022-08-02T21:31:06.870Z,3.83
2022-08-02T21:33:17.796Z,4.60
2022-08-02T21:35:26.497Z,3.90
2022-08-02T21:37:33.142Z,4.30
2022-08-02T21:39:49.803Z,4.17
2022-08-02T21:41:53.169Z,4.17
2022-08-02T21:43:58.119Z,3.40
2022-08-02T21:46:07.547Z,3.33
2022-08-02T21:48:11.600Z,3.80
2022-08-02T21:50:16.532Z,3.30
2022-08-02T21:52:19.894Z,3.10
2022-08-02T21:54:28.080Z,3.40
2022-08-02T21:56:30.802Z,3.30
2022-08-02T21:58:34.836Z,2.80
2022-08-02T22:00:37.601Z,3.30
2022-08-02T22:02:41.845Z,3.33
2022-08-02T22:04:47.346Z,3.03
2022-08-02T22:06:50.988Z,3.23
2022-08-02T22:08:53.899Z,2.90
2022-08-02T22:11:04.112Z,3.10
2022-08-02T22:13:16.286Z,3.07
2022-08-02T22:15:25.785Z,3.00
2022-08-02T22:17:51.235Z,3.00
2022-08-02T22:19:58.155Z,3.03
2022-08-02T22:22:00.968Z,2.93
2022-08-02T22:24:04.967Z,3.27
2022-08-02T22:26:15.877Z,2.80
2022-08-02T22:28:39.087Z,3.27
2022-08-02T22:30:45.931Z,2.90
2022-08-02T22:33:15.270Z,3.10
2022-08-02T22:35:19.813Z,3.00
2022-08-02T22:38:14.856Z,2.90
2022-08-02T22:40:09.236Z,2.50
2022-08-02T22:42:08.265Z,3.20
2022-08-02T22:44:12.050Z,2.57
2022-08-02T22:46:15.217Z,2.97
2022-08-02T22:48:20.462Z,2.90
2022-08-02T22:50:25.936Z,2.70
2022-08-02T22:52:28.900Z,2.50
2022-08-02T22:54:31.788Z,2.50
2022-08-02T22:56:34.909Z,2.70
2022-08-02T22:58:36.011Z,2.87
2022-08-02T23:01:01.284Z,2.50
2022-08-02T23:03:06.873Z,2.43
2022-08-02T23:05:10.313Z,2.60
2022-08-02T23:07:14.621Z,2.80
2022-08-02T23:09:17.440Z,2.60
2022-08-02T23:11:20.329Z,2.20
2022-08-02T23:13:27.993Z,2.60
2022-08-02T23:15:51.324Z,2.63
2022-08-02T23:18:11.501Z,2.60
2022-08-02T23:20:13.439Z,2.47
2022-08-02T23:22:18.160Z,2.70
2022-08-02T23:24:22.498Z,2.77
2022-08-02T23:26:25.379Z,2.80
2022-08-02T23:28:28.252Z,2.60
2022-08-02T23:30:31.057Z,2.53
2022-08-02T23:32:33.871Z,2.53
2022-08-02T23:34:37.376Z,2.50
2022-08-02T23:36:40.517Z,2.53
2022-08-02T23:38:44.663Z,2.83
2022-08-02T23:40:47.418Z,2.80
2022-08-02T23:42:50.233Z,2.83
2022-08-02T23:44:53.995Z,2.87
2022-08-02T23:46:57.830Z,2.70
2022-08-02T23:49:00.654Z,2.80
2022-08-02T23:51:03.527Z,2.93
2022-08-02T23:53:06.364Z,3.10
2022-08-02T23:55:10.841Z,2.93
2022-08-02T23:57:20.654Z,2.83
2022-08-02T23:59:24.681Z,2.80
